createdAt,value
2018-03-19T00:00:38.443Z,97949.64
2018-03-19T00:03:05.852Z,97938.64
2018-03-19T00:05:33.269Z,97945.50
2018-03-19T00:08:00.678Z,97948.00
2018-03-19T00:10:28.098Z,97943.25
2018-03-19T00:12:55.522Z,97942.42
2018-03-19T00:15:22.940Z,97946.87
2018-03-19T00:17:50.374Z,97945.48
2018-03-19T00:20:17.779Z,97948.50
2018-03-19T00:22:45.211Z,97946.70
2018-03-19T00:25:12.622Z,97940.38
2018-03-19T00:27:40.037Z,97948.88
2018-03-19T00:30:07.460Z,97941.98
2018-03-19T00:32:34.868Z,97952.14
2018-03-19T00:35:02.317Z,97948.45
2018-03-19T00:37:29.706Z,97948.50
2018-03-19T00:39:57.116Z,97943.30
2018-03-19T00:42:24.570Z,97949.13
2018-03-19T00:44:51.987Z,97945.50
2018-03-19T00:47:19.409Z,97945.68
2018-03-19T00:49:46.866Z,97949.45
2018-03-19T00:52:14.293Z,97944.02
2018-03-19T00:54:41.697Z,97941.81
2018-03-19T00:57:09.119Z,97953.22
2018-03-19T00:59:36.541Z,97945.48
2018-03-19T01:02:03.970Z,97946.89
2018-03-19T01:04:31.379Z,97950.73
2018-03-19T01:06:58.806Z,97949.09
2018-03-19T01:09:26.215Z,97951.00
2018-03-19T01:11:53.656Z,97945.75
2018-03-19T01:14:21.077Z,97943.94
2018-03-19T01:16:48.490Z,97940.80
2018-03-19T01:19:15.917Z,97948.60
2018-03-19T01:21:43.330Z,97939.08
2018-03-19T01:24:10.745Z,97939.39
2018-03-19T01:26:38.162Z,97937.27
2018-03-19T01:29:05.577Z,97940.72
2018-03-19T01:31:33.006Z,97937.77
2018-03-19T01:34:00.435Z,97939.08
2018-03-19T01:36:27.848Z,97930.75
2018-03-19T01:38:55.275Z,97937.92
2018-03-19T01:41:22.684Z,97930.23
2018-03-19T01:43:50.120Z,97938.02
2018-03-19T01:46:17.529Z,97931.50
2018-03-19T01:48:44.951Z,97928.56
2018-03-19T01:51:12.361Z,97928.50
2018-03-19T01:53:39.773Z,97923.92
2018-03-19T01:56:07.190Z,97926.95
2018-03-19T01:58:34.613Z,97927.05
2018-03-19T02:01:02.025Z,97929.37
2018-03-19T02:03:29.443Z,97921.27
2018-03-19T02:05:56.852Z,97924.30
2018-03-19T02:08:24.277Z,97924.73
2018-03-19T02:10:51.702Z,97922.31
2018-03-19T02:13:19.116Z,97921.69
2018-03-19T02:15:46.563Z,97927.14
2018-03-19T02:18:13.979Z,97920.92
2018-03-19T02:20:41.385Z,97923.23
2018-03-19T02:23:08.806Z,97922.05
2018-03-19T02:25:36.226Z,97922.83
2018-03-19T02:28:03.645Z,97924.39
2018-03-19T02:30:31.064Z,97916.73
2018-03-19T02:32:58.465Z,97920.50
2018-03-19T02:35:25.883Z,97913.27
2018-03-19T02:37:53.290Z,97910.47
2018-03-19T02:40:20.701Z,97916.06
2018-03-19T02:42:48.126Z,97913.10
2018-03-19T02:45:15.537Z,97921.62
2018-03-19T02:47:42.946Z,97919.56
2018-03-19T02:50:10.368Z,97923.06
2018-03-19T02:52:37.790Z,97921.72
2018-03-19T02:55:05.225Z,97921.64
2018-03-19T02:57:32.621Z,97924.22
2018-03-19T03:00:00.037Z,97925.09
2018-03-19T03:02:27.524Z,97926.43
2018-03-19T03:04:54.938Z,97932.25
2018-03-19T03:07:22.342Z,97929.50
2018-03-19T03:09:49.766Z,97929.35
2018-03-19T03:12:17.175Z,97930.12
2018-03-19T03:14:44.592Z,97923.75
2018-03-19T03:17:12.008Z,97923.33
2018-03-19T03:19:39.417Z,97928.77
2018-03-19T03:22:06.894Z,97933.72
2018-03-19T03:24:34.321Z,97931.66
2018-03-19T03:27:01.737Z,97937.63
2018-03-19T03:29:29.146Z,97933.29
2018-03-19T03:31:56.563Z,97940.59
2018-03-19T03:34:23.975Z,97936.39
2018-03-19T03:36:51.392Z,97936.33
2018-03-19T03:39:18.798Z,97933.31
2018-03-19T03:41:46.215Z,97929.80
2018-03-19T03:44:13.618Z,97934.41
2018-03-19T03:46:41.034Z,97933.84
2018-03-19T03:49:08.440Z,97931.66
2018-03-19T03:51:35.857Z,97934.66
2018-03-19T03:54:03.260Z,97930.98
2018-03-19T03:56:30.688Z,97933.93
2018-03-19T03:58:58.104Z,97930.47
2018-03-19T04:01:25.575Z,97938.98
2018-03-19T04:03:52.977Z,97929.84
2018-03-19T04:06:20.395Z,97935.52
2018-03-19T04:08:47.809Z,97931.17
2018-03-19T04:11:15.222Z,97928.95
2018-03-19T04:13:42.636Z,97932.72
2018-03-19T04:16:10.045Z,97939.41
2018-03-19T04:18:37.473Z,97942.31
2018-03-19T04:21:04.989Z,97937.27
2018-03-19T04:23:32.357Z,97940.59
2018-03-19T04:25:59.777Z,97939.66
2018-03-19T04:28:27.186Z,97934.58
2018-03-19T04:30:54.618Z,97945.18
2018-03-19T04:33:22.008Z,97937.45
2018-03-19T04:35:49.417Z,97932.27
2018-03-19T04:38:16.833Z,97928.48
2018-03-19T04:40:44.241Z,97919.36
2018-03-19T04:43:11.668Z,97929.34
2018-03-19T04:45:39.074Z,97919.56
2018-03-19T04:48:06.495Z,97931.90
2018-03-19T04:50:33.902Z,97925.50
2018-03-19T04:53:01.327Z,97930.02
2018-03-19T04:55:28.734Z,97933.70
2018-03-19T04:57:56.155Z,97932.19
2018-03-19T05:00:23.557Z,97930.88
2018-03-19T05:02:50.982Z,97935.59
2018-03-19T05:05:18.376Z,97938.20
2018-03-19T05:07:45.788Z,97935.95
2018-03-19T05:10:13.192Z,97936.15
2018-03-19T05:12:40.622Z,97936.73
2018-03-19T05:15:08.027Z,97937.14
2018-03-19T05:17:35.485Z,97947.52
2018-03-19T05:20:02.863Z,97941.42
2018-03-19T05:22:30.277Z,97952.36
2018-03-19T05:24:57.705Z,97952.44
2018-03-19T05:27:25.110Z,97949.86
2018-03-19T05:29:52.521Z,97951.29
2018-03-19T05:32:20.554Z,97948.83
2018-03-19T05:34:47.960Z,97949.66
2018-03-19T05:37:15.375Z,97955.93
2018-03-19T05:39:42.794Z,97952.84
2018-03-19T05:42:10.203Z,97966.32
2018-03-19T05:44:37.664Z,97960.91
2018-03-19T05:47:05.124Z,97970.19
2018-03-19T05:49:32.653Z,97970.46
2018-03-19T05:52:00.060Z,97970.11
2018-03-19T05:54:27.485Z,97973.53
2018-03-19T05:56:54.893Z,97973.09
2018-03-19T05:59:22.302Z,97978.45
2018-03-19T06:01:49.714Z,97983.19
2018-03-19T06:04:17.133Z,97985.48
2018-03-19T06:06:44.542Z,97983.78
2018-03-19T06:09:11.968Z,97986.09
2018-03-19T06:11:39.373Z,97986.98
2018-03-19T06:14:06.794Z,97992.56
2018-03-19T06:16:34.198Z,97992.99
2018-03-19T06:19:01.617Z,97989.30
2018-03-19T06:21:29.027Z,97987.74
2018-03-19T06:23:56.446Z,97992.05
2018-03-19T06:26:23.853Z,97995.00
2018-03-19T06:28:51.271Z,97995.14
2018-03-19T06:31:18.683Z,97994.05
2018-03-19T06:33:46.103Z,97995.00
2018-03-19T06:36:13.498Z,97999.63
2018-03-19T06:38:40.923Z,98001.17
2018-03-19T06:41:08.341Z,98000.52
2018-03-19T06:43:35.746Z,98005.06
2018-03-19T06:46:03.166Z,98008.98
2018-03-19T06:48:30.589Z,98003.60
2018-03-19T06:50:57.995Z,98006.50
2018-03-19T06:53:25.401Z,98007.22
2018-03-19T06:55:52.820Z,98008.39
2018-03-19T06:58:20.231Z,98003.77
2018-03-19T07:00:47.645Z,98004.64
2018-03-19T07:03:15.064Z,98011.25
2018-03-19T07:05:42.482Z,98014.35
2018-03-19T07:08:09.889Z,98009.70
2018-03-19T07:10:37.313Z,98021.47
2018-03-19T07:13:04.717Z,98024.31
2018-03-19T07:15:32.385Z,98028.06
2018-03-19T07:17:59.800Z,98029.38
2018-03-19T07:20:27.208Z,98027.03
2018-03-19T07:22:54.626Z,98027.58
2018-03-19T07:25:22.082Z,98022.38
2018-03-19T07:27:49.450Z,98023.08
2018-03-19T07:30:16.857Z,98020.86
2018-03-19T07:32:44.286Z,98025.83
2018-03-19T07:35:11.706Z,98024.80
2018-03-19T07:37:39.119Z,98026.48
2018-03-19T07:40:06.546Z,98028.17
2018-03-19T07:42:33.976Z,98037.86
2018-03-19T07:45:01.402Z,98034.64
2018-03-19T07:47:28.819Z,98039.10
2018-03-19T07:49:56.225Z,98031.59
2018-03-19T07:52:23.645Z,98043.05
2018-03-19T07:54:51.065Z,98034.97
2018-03-19T07:57:18.493Z,98038.31
2018-03-19T07:59:45.904Z,98038.31
2018-03-19T08:02:13.325Z,98040.27
2018-03-19T08:04:40.721Z,98035.86
2018-03-19T08:07:08.146Z,98043.13
2018-03-19T08:09:35.554Z,98035.70
2018-03-19T08:12:02.971Z,98038.81
2018-03-19T08:14:30.382Z,98036.78
2018-03-19T08:16:57.801Z,98037.27
2018-03-19T08:19:25.210Z,98037.94
2018-03-19T08:21:52.618Z,98043.76
2018-03-19T08:24:20.049Z,98040.31
2018-03-19T08:29:43.097Z,98039.09
2018-03-19T08:32:10.510Z,98051.17
2018-03-19T08:34:37.929Z,98042.67
2018-03-19T08:37:05.345Z,98046.89
2018-03-19T08:39:32.757Z,98048.09
2018-03-19T08:42:00.172Z,98042.70
2018-03-19T08:44:27.588Z,98048.66
2018-03-19T08:46:54.995Z,98052.84
2018-03-19T08:49:22.418Z,98052.30
2018-03-19T08:51:49.833Z,98049.80
2018-03-19T08:54:17.251Z,98044.75
2018-03-19T08:56:44.765Z,98046.77
2018-03-19T08:59:12.104Z,98052.80
2018-03-19T09:01:39.514Z,98049.40
2018-03-19T09:04:06.925Z,98051.17
2018-03-19T09:06:34.336Z,98051.64
2018-03-19T09:09:01.756Z,98050.09
2018-03-19T09:11:29.163Z,98043.78
2018-03-19T09:13:56.588Z,98050.91
2018-03-19T09:16:23.995Z,98049.52
2018-03-19T09:18:51.418Z,98046.15
2018-03-19T09:21:18.822Z,98053.88
2018-03-19T09:23:46.239Z,98055.63
2018-03-19T09:26:13.652Z,98053.03
2018-03-19T09:28:41.086Z,98046.88
2018-03-19T09:31:08.498Z,98045.23
2018-03-19T09:33:35.925Z,98046.31
2018-03-19T09:36:03.331Z,98052.28
2018-03-19T09:38:30.734Z,98052.64
2018-03-19T09:40:58.150Z,98046.93
2018-03-19T09:43:25.557Z,98055.19
2018-03-19T09:45:52.972Z,98058.48
2018-03-19T09:48:20.402Z,98063.77
2018-03-19T09:50:47.819Z,98056.49
2018-03-19T09:53:15.218Z,98065.66
2018-03-19T09:55:42.640Z,98057.29
2018-03-19T09:58:10.046Z,98063.19
2018-03-19T10:00:37.461Z,98064.20
2018-03-19T10:03:04.942Z,98061.50
2018-03-19T10:05:32.297Z,98068.32
2018-03-19T10:07:59.702Z,98064.65
2018-03-19T10:13:00.786Z,98069.61
2018-03-19T10:15:28.202Z,98067.95
2018-03-19T10:17:55.606Z,98072.95
2018-03-19T10:20:23.018Z,98072.64
2018-03-19T10:22:50.430Z,98067.03
2018-03-19T10:25:17.841Z,98068.72
2018-03-19T10:27:45.246Z,98075.47
2018-03-19T10:30:12.661Z,98073.55
2018-03-19T10:32:40.070Z,98069.05
2018-03-19T10:35:07.506Z,98069.67
2018-03-19T10:37:34.914Z,98075.74
2018-03-19T10:40:02.368Z,98070.97
2018-03-19T10:42:29.741Z,98072.91
2018-03-19T10:44:57.145Z,98071.52
2018-03-19T10:47:24.566Z,98065.19
2018-03-19T10:49:51.999Z,98071.84
2018-03-19T10:52:19.394Z,98072.72
2018-03-19T10:54:46.814Z,98075.44
2018-03-19T10:57:14.229Z,98077.41
2018-03-19T10:59:41.658Z,98072.77
2018-03-19T11:02:14.729Z,98075.69
2018-03-19T11:04:47.819Z,98074.85
2018-03-19T11:07:21.010Z,98075.22
2018-03-19T11:09:48.413Z,98069.57
2018-03-19T11:12:15.856Z,98074.09
2018-03-19T11:14:43.249Z,98068.70
2018-03-19T11:17:10.670Z,98065.84
2018-03-19T11:19:38.077Z,98058.35
2018-03-19T11:22:05.510Z,98058.70
2018-03-19T11:24:32.923Z,98052.00
2018-03-19T11:27:00.354Z,98051.82
2018-03-19T11:29:27.763Z,98055.45
2018-03-19T11:31:55.178Z,98053.17
2018-03-19T11:34:22.577Z,98049.92
2018-03-19T11:36:50.001Z,98041.42
2018-03-19T11:39:17.402Z,98049.06
2018-03-19T11:41:44.832Z,98049.27
2018-03-19T11:44:12.238Z,98048.53
2018-03-19T11:46:39.642Z,98053.11
2018-03-19T11:49:07.063Z,98050.61
2018-03-19T11:51:34.465Z,98050.59
2018-03-19T11:54:01.892Z,98052.69
2018-03-19T11:56:29.299Z,98050.08
2018-03-19T11:58:56.728Z,98056.42
2018-03-19T12:01:24.145Z,98050.48
2018-03-19T12:03:51.568Z,98056.80
2018-03-19T12:06:18.973Z,98047.98
2018-03-19T12:08:46.384Z,98056.98
2018-03-19T12:11:13.802Z,98058.80
2018-03-19T12:13:41.217Z,98062.84
2018-03-19T12:16:08.628Z,98063.38
2018-03-19T12:18:36.042Z,98059.27
2018-03-19T12:21:03.452Z,98056.72
2018-03-19T12:23:30.854Z,98058.58
2018-03-19T12:25:58.258Z,98058.37
2018-03-19T12:28:25.669Z,98061.97
2018-03-19T12:30:53.084Z,98060.64
2018-03-19T12:33:20.510Z,98058.28
2018-03-19T12:35:47.901Z,98051.38
2018-03-19T12:38:15.324Z,98053.74
2018-03-19T12:40:42.734Z,98055.50
2018-03-19T12:43:10.149Z,98057.94
2018-03-19T12:45:37.570Z,98056.91
2018-03-19T12:48:04.975Z,98054.20
2018-03-19T12:50:32.389Z,98056.13
2018-03-19T12:52:59.797Z,98050.80
2018-03-19T12:55:27.222Z,98050.14
2018-03-19T12:57:54.617Z,98058.98
2018-03-19T13:00:22.038Z,98048.50
2018-03-19T13:02:49.450Z,98061.42
2018-03-19T13:05:16.871Z,98064.62
2018-03-19T13:07:44.277Z,98056.01
2018-03-19T13:10:11.683Z,98051.70
2018-03-19T13:12:39.085Z,98058.45
2018-03-19T13:15:06.498Z,98050.44
2018-03-19T13:17:33.908Z,98048.73
2018-03-19T13:20:01.313Z,98050.03
2018-03-19T13:22:28.712Z,98050.55
2018-03-19T13:24:56.129Z,98047.05
2018-03-19T13:27:23.536Z,98045.89
2018-03-19T13:29:50.950Z,98045.18
2018-03-19T13:32:18.358Z,98049.77
2018-03-19T13:34:45.754Z,98053.98
2018-03-19T13:37:13.167Z,98056.61
2018-03-19T13:39:40.590Z,98053.47
2018-03-19T13:42:07.998Z,98050.98
2018-03-19T13:44:35.405Z,98062.21
2018-03-19T13:47:02.823Z,98058.11
2018-03-19T13:49:30.241Z,98055.34
2018-03-19T13:51:57.649Z,98058.54
2018-03-19T13:54:25.059Z,98064.32
2018-03-19T13:56:52.465Z,98065.73
2018-03-19T13:59:19.877Z,98065.05
2018-03-19T14:01:47.290Z,98073.28
2018-03-19T14:04:14.713Z,98071.56
2018-03-19T14:06:42.128Z,98071.20
2018-03-19T14:09:09.534Z,98075.36
2018-03-19T14:11:36.953Z,98070.69
2018-03-19T14:14:04.366Z,98071.25
2018-03-19T14:16:31.789Z,98072.80
2018-03-19T14:18:59.190Z,98073.42
2018-03-19T14:21:26.667Z,98068.45
2018-03-19T14:23:54.030Z,98068.97
2018-03-19T14:26:21.446Z,98069.67
2018-03-19T14:28:48.883Z,98074.92
2018-03-19T14:31:16.257Z,98067.93
2018-03-19T14:33:43.674Z,98074.48
2018-03-19T14:36:11.089Z,98074.41
2018-03-19T14:38:38.496Z,98072.77
2018-03-19T14:41:05.917Z,98067.61
2018-03-19T14:43:34.146Z,98064.59
2018-03-19T14:46:01.546Z,98063.92
2018-03-19T14:48:28.964Z,98072.64
2018-03-19T14:50:56.376Z,98069.62
2018-03-19T14:53:23.794Z,98068.55
2018-03-19T14:55:51.204Z,98073.78
2018-03-19T14:58:18.612Z,98070.08
2018-03-19T15:00:46.014Z,98070.45
2018-03-19T15:03:13.429Z,98070.06
2018-03-19T15:05:40.844Z,98071.86
2018-03-19T15:08:08.253Z,98068.55
2018-03-19T15:10:35.663Z,98070.10
2018-03-19T15:13:03.085Z,98073.52
2018-03-19T15:15:30.493Z,98071.25
2018-03-19T15:17:57.915Z,98068.53
2018-03-19T15:20:25.318Z,98064.47
2018-03-19T15:22:52.740Z,98061.50
2018-03-19T15:25:20.141Z,98068.14
2018-03-19T15:27:47.569Z,98069.14
2018-03-19T15:30:14.982Z,98079.01
2018-03-19T15:32:42.395Z,98074.85
2018-03-19T15:35:09.810Z,98073.84
2018-03-19T15:37:37.213Z,98074.26
2018-03-19T15:40:04.622Z,98070.84
2018-03-19T15:42:32.028Z,98069.88
2018-03-19T15:44:59.437Z,98073.58
2018-03-19T15:47:26.857Z,98080.70
2018-03-19T15:49:54.264Z,98077.98
2018-03-19T15:52:21.669Z,98078.38
2018-03-19T15:54:49.088Z,98080.23
2018-03-19T15:57:16.508Z,98082.51
2018-03-19T15:59:43.913Z,98086.17
2018-03-19T16:02:11.317Z,98089.50
2018-03-19T16:04:38.728Z,98085.33
2018-03-19T16:07:06.129Z,98088.19
2018-03-19T16:09:33.535Z,98088.25
2018-03-19T16:12:00.941Z,98093.48
2018-03-19T16:14:28.353Z,98094.41
2018-03-19T16:16:55.759Z,98101.27
2018-03-19T16:19:23.167Z,98096.21
2018-03-19T16:21:50.569Z,98096.89
2018-03-19T16:24:17.973Z,98101.92
2018-03-19T16:26:45.381Z,98112.94
2018-03-19T16:29:12.790Z,98106.39
2018-03-19T16:31:40.193Z,98107.94
2018-03-19T16:34:07.610Z,98113.28
2018-03-19T16:36:35.008Z,98116.66
2018-03-19T16:39:02.413Z,98125.80
2018-03-19T16:41:29.822Z,98125.29
2018-03-19T16:43:57.238Z,98122.05
2018-03-19T16:46:24.645Z,98123.94
2018-03-19T16:48:52.057Z,98126.72
2018-03-19T16:51:19.474Z,98124.70
2018-03-19T16:53:46.894Z,98123.57
2018-03-19T16:56:14.303Z,98126.49
2018-03-19T16:58:41.721Z,98127.90
2018-03-19T17:01:09.119Z,98131.02
2018-03-19T17:03:36.530Z,98133.55
2018-03-19T17:06:03.944Z,98132.87
2018-03-19T17:08:31.351Z,98130.92
2018-03-19T17:10:58.747Z,98148.58
2018-03-19T17:13:26.158Z,98144.33
2018-03-19T17:15:53.574Z,98150.80
2018-03-19T17:18:20.996Z,98152.03
2018-03-19T17:20:48.401Z,98155.25
2018-03-19T17:23:15.817Z,98155.05
2018-03-19T17:25:43.231Z,98160.84
2018-03-19T17:28:10.638Z,98160.44
2018-03-19T17:30:38.097Z,98167.06
2018-03-19T17:33:05.466Z,98171.05
2018-03-19T17:35:32.880Z,98167.25
2018-03-19T17:38:00.289Z,98174.59
2018-03-19T17:40:27.714Z,98183.03
2018-03-19T17:42:55.133Z,98185.03
2018-03-19T17:45:22.546Z,98186.24
2018-03-19T17:47:49.957Z,98186.95
2018-03-19T17:50:17.373Z,98196.48
2018-03-19T17:52:44.795Z,98185.91
2018-03-19T17:55:12.213Z,98190.73
2018-03-19T17:57:39.622Z,98190.97
2018-03-19T18:00:07.039Z,98201.06
2018-03-19T18:02:34.455Z,98199.51
2018-03-19T18:05:01.864Z,98199.88
2018-03-19T18:07:29.262Z,98203.02
2018-03-19T18:09:56.693Z,98207.20
2018-03-19T18:12:24.158Z,98218.29
2018-03-19T18:14:51.522Z,98219.16
2018-03-19T18:17:18.945Z,98211.67
2018-03-19T18:19:46.930Z,98214.15
2018-03-19T18:22:14.351Z,98219.14
2018-03-19T18:24:41.757Z,98220.21
2018-03-19T18:27:09.180Z,98227.04
2018-03-19T18:29:36.586Z,98225.56
2018-03-19T18:32:04.004Z,98227.36
2018-03-19T18:34:31.413Z,98226.67
2018-03-19T18:36:58.856Z,98234.24
2018-03-19T18:39:26.264Z,98241.33
2018-03-19T18:41:53.683Z,98247.20
2018-03-19T18:44:21.103Z,98240.27
2018-03-19T18:46:48.533Z,98249.51
2018-03-19T18:49:15.937Z,98249.16
2018-03-19T18:51:43.357Z,98247.37
2018-03-19T18:54:10.769Z,98245.87
2018-03-19T18:56:38.407Z,98247.16
2018-03-19T18:59:05.823Z,98257.36
2018-03-19T19:01:33.236Z,98245.27
2018-03-19T19:04:00.657Z,98252.02
2018-03-19T19:06:28.089Z,98247.05
2018-03-19T19:08:55.489Z,98258.94
2018-03-19T19:11:22.908Z,98258.11
2018-03-19T19:13:50.327Z,98264.73
2018-03-19T19:16:17.741Z,98257.17
2018-03-19T19:18:45.163Z,98260.16
2018-03-19T19:21:12.578Z,98267.81
2018-03-19T19:23:39.998Z,98263.40
2018-03-19T19:26:07.405Z,98272.17
2018-03-19T19:28:34.829Z,98262.86
2018-03-19T19:31:02.251Z,98269.31
2018-03-19T19:33:29.694Z,98264.13
2018-03-19T19:35:57.095Z,98269.33
2018-03-19T19:38:24.508Z,98276.72
2018-03-19T19:40:51.913Z,98276.16
2018-03-19T19:43:19.335Z,98274.14
2018-03-19T19:45:46.746Z,98269.13
2018-03-19T19:48:14.167Z,98265.47
2018-03-19T19:50:41.569Z,98266.66
2018-03-19T19:53:08.998Z,98269.22
2018-03-19T19:55:36.409Z,98267.19
2018-03-19T19:58:03.826Z,98273.45
2018-03-19T20:00:31.358Z,98273.12
2018-03-19T20:02:58.850Z,98274.22
2018-03-19T20:05:26.261Z,98278.45
2018-03-19T20:08:25.991Z,98278.81
2018-03-19T20:15:42.946Z,98286.20
2018-03-19T20:18:10.366Z,98281.72
2018-03-19T20:20:37.785Z,98279.31
2018-03-19T20:23:05.205Z,98279.23
2018-03-19T20:25:32.623Z,98280.50
2018-03-19T20:28:00.042Z,98279.56
2018-03-19T20:30:27.471Z,98280.68
2018-03-19T20:32:54.885Z,98280.36
2018-03-19T20:35:22.314Z,98279.30
2018-03-19T20:37:49.725Z,98279.84
2018-03-19T20:40:17.150Z,98284.05
2018-03-19T20:42:44.579Z,98292.84
2018-03-19T20:45:12.068Z,98288.88
2018-03-19T20:47:39.496Z,98292.05
2018-03-19T20:50:07.346Z,98289.13
2018-03-19T20:52:34.854Z,98283.64
2018-03-19T20:55:02.279Z,98291.29
2018-03-19T20:57:29.690Z,98287.48
2018-03-19T20:59:57.110Z,98292.60
2018-03-19T21:02:24.550Z,98290.62
2018-03-19T21:04:51.966Z,98286.81
2018-03-19T21:07:19.383Z,98293.97
2018-03-19T21:09:46.826Z,98290.44
2018-03-19T21:12:14.284Z,98296.36
2018-03-19T21:14:42.014Z,98295.19
2018-03-19T21:17:09.429Z,98306.02
2018-03-19T21:19:36.862Z,98302.55
2018-03-19T21:22:04.276Z,98308.23
2018-03-19T21:24:31.701Z,98306.94
2018-03-19T21:26:59.115Z,98313.84
2018-03-19T21:29:26.534Z,98307.66
2018-03-19T21:31:53.963Z,98306.52
2018-03-19T21:34:21.418Z,98305.92
2018-03-19T21:36:48.847Z,98307.88
2018-03-19T21:39:16.249Z,98306.76
2018-03-19T21:41:43.764Z,98307.70
2018-03-19T21:44:11.263Z,98312.38
2018-03-19T21:46:38.782Z,98308.69
2018-03-19T21:49:06.243Z,98305.39
2018-03-19T21:51:33.713Z,98310.56
2018-03-19T21:54:01.167Z,98315.13
2018-03-19T21:56:28.662Z,98312.22
2018-03-19T21:58:56.107Z,98318.23
2018-03-19T22:02:40.551Z,98315.98
2018-03-19T22:05:07.969Z,98317.55
2018-03-19T22:07:35.378Z,98316.80
2018-03-19T22:10:02.817Z,98315.55
2018-03-19T22:12:30.222Z,98316.77
2018-03-19T22:14:57.650Z,98322.20
2018-03-19T22:17:25.062Z,98322.70
2018-03-19T22:19:52.469Z,98318.02
2018-03-19T22:22:19.904Z,98311.16
2018-03-19T22:24:47.315Z,98319.61
2018-03-19T22:27:15.489Z,98319.00
2018-03-19T22:29:42.902Z,98319.13
2018-03-19T22:32:10.323Z,98322.16
2018-03-19T22:34:37.736Z,98329.30
2018-03-19T22:37:05.171Z,98324.41
2018-03-19T22:39:32.570Z,98323.50
2018-03-19T22:41:59.988Z,98334.20
2018-03-19T22:44:27.408Z,98338.33
2018-03-19T22:46:54.826Z,98337.20
2018-03-19T22:49:22.236Z,98334.04
2018-03-19T22:51:49.650Z,98337.20
2018-03-19T22:54:17.064Z,98338.67
2018-03-19T22:56:44.490Z,98340.15
2018-03-19T22:59:11.912Z,98335.34
2018-03-19T23:01:39.333Z,98335.28
2018-03-19T23:04:06.746Z,98335.27
2018-03-19T23:06:34.162Z,98339.47
2018-03-19T23:09:01.573Z,98345.88
2018-03-19T23:11:29.003Z,98337.52
2018-03-19T23:13:56.415Z,98341.91
2018-03-19T23:16:23.850Z,98353.00
2018-03-19T23:18:51.258Z,98349.25
2018-03-19T23:21:18.687Z,98352.46
2018-03-19T23:23:46.097Z,98354.20
2018-03-19T23:26:13.524Z,98350.23
2018-03-19T23:28:40.930Z,98350.48
2018-03-19T23:31:08.354Z,98346.40
2018-03-19T23:33:35.768Z,98348.92
2018-03-19T23:36:03.179Z,98348.98
2018-03-19T23:38:30.595Z,98354.44
2018-03-19T23:40:58.024Z,98356.17
2018-03-19T23:43:25.426Z,98355.67
2018-03-19T23:45:52.851Z,98353.38
2018-03-19T23:48:20.249Z,98357.01
2018-03-19T23:50:48.134Z,98355.44
2018-03-19T23:53:15.555Z,98357.30
2018-03-19T23:55:42.974Z,98354.66
2018-03-19T23:58:10.396Z,98356.02
